Terminal Aerodrome Forecast
Issued by NWS

Home | Current Version | Previous Version | Text Only | Print | Product List | Glossary On
Versions: 1 2 3 4 5 6 7 8 9 10 11 12 13 14 15 16 17 18 19 20 21 22 23 24 25 26 27 28 29 30 31 32
000
FTUS43 KDVN 191857 AAC
TAFCID
TAF AMD
KCID 191857Z 1919/2018 14008KT 6SM BR SCT019
     FM200400 13011KT P6SM VCSH SCT100 WS020/18035KT
     FM201000 15011KT P6SM BKN090 WS020/21033KT
     FM201500 20013G18KT P6SM BKN090=

USA.gov is the U.S. government's official web portal to all federal, state and local government web resources and services.